Time;durP1;ratioP1;P1;durP2;ratioP2;P2;SDS_P1;SDS_P2;PMS_P1;PMS_P2;Temp;Humidity;BMP_temperature;BMP_pressure;BME280_temperature;BME280_humidity;BME280_pressure;Samples;Min_cycle;Max_cycle;Signal;HPM_P1;HPM_P2
2021/10/19 00:00:31;;;;;;;;;;;12.90;81.40;;;;;;5082865;28;19912;-78
2021/10/19 00:02:57;;;;;;;;;;;12.90;99.90;;;;;;5093814;28;20008;-78
2021/10/19 00:05:22;;;;;;;;;;;12.90;99.90;;;;;;5102088;28;19912;-79
2021/10/19 00:07:48;;;;;;;;;;;12.90;99.90;;;;;;5102501;28;19955;-79
2021/10/19 00:10:14;;;;;;;;;;;12.90;99.90;;;;;;5103008;28;19974;-79
2021/10/19 00:12:40;;;;;;;;;;;12.90;99.90;;;;;;5085472;28;19913;-80
2021/10/19 00:15:09;;;;;;;;;;;12.90;99.90;;;;;;5103294;28;19912;-79
2021/10/19 00:17:38;;;;;;;;;;;13.00;99.90;;;;;;5087173;28;19997;-78
2021/10/19 00:20:04;;;;;;;;;;;13.00;1.00;;;;;;5100227;28;19920;-80
2021/10/19 00:22:30;;;;;;;;;;;13.00;1.00;;;;;;5114233;22;20454;-83
2021/10/19 00:24:55;;;;;;;;;;;13.00;1.00;;;;;;5093769;28;19920;-83
2021/10/19 00:27:21;;;;;;;;;;;13.00;1.00;;;;;;5093632;28;19958;-83
2021/10/19 00:29:46;;;;;;;;;;;13.00;1.00;;;;;;5084144;28;20295;-80
2021/10/19 00:32:12;;;;;;;;;;;13.00;74.10;;;;;;5092501;28;19954;-80
2021/10/19 00:34:37;;;;;;;;;;;12.90;99.90;;;;;;5094397;28;19958;-80
2021/10/19 00:37:03;;;;;;;;;;;12.90;99.90;;;;;;5077777;28;19912;-80
2021/10/19 00:39:28;;;;;;;;;;;12.90;99.90;;;;;;5086960;28;19916;-80
2021/10/19 00:41:54;;;;;;;;;;;12.90;99.90;;;;;;5085029;28;19934;-80
2021/10/19 00:44:20;;;;;;;;;;;12.90;99.90;;;;;;5085238;28;19912;-80
2021/10/19 00:46:45;;;;;;;;;;;13.00;99.90;;;;;;5072169;28;19913;-80
2021/10/19 00:49:11;;;;;;;;;;;13.00;99.90;;;;;;5074438;28;20382;-80
2021/10/19 00:51:36;;;;;;;;;;;13.00;99.90;;;;;;5088752;28;19920;-80
2021/10/19 00:54:02;;;;;;;;;;;13.00;99.90;;;;;;5069452;28;20346;-80
2021/10/19 00:56:28;;;;;;;;;;;13.00;99.90;;;;;;5087727;28;20006;-81
2021/10/19 00:58:54;;;;;;;;;;;13.00;99.90;;;;;;5079705;28;20046;-80
2021/10/19 01:01:20;;;;;;;;;;;13.00;99.90;;;;;;5068252;28;19920;-80
2021/10/19 01:03:45;;;;;;;;;;;13.00;99.90;;;;;;5082826;28;19927;-80
2021/10/19 01:06:11;;;;;;;;;;;13.00;99.90;;;;;;5088399;28;19919;-81
2021/10/19 01:08:37;;;;;;;;;;;13.00;99.90;;;;;;5090612;28;19916;-81
2021/10/19 01:11:05;;;;;;;;;;;13.10;99.90;;;;;;5083534;28;19999;-80
2021/10/19 01:13:32;;;;;;;;;;;13.10;99.90;;;;;;5089286;28;19912;-81
2021/10/19 01:16:07;;;;;;;;;;;13.10;99.90;;;;;;5086725;28;19912;-81
2021/10/19 01:18:33;;;;;;;;;;;13.10;99.90;;;;;;5066614;28;19919;-80
2021/10/19 01:20:58;;;;;;;;;;;13.10;1.00;;;;;;5087366;28;20284;-81
2021/10/19 01:23:24;;;;;;;;;;;13.20;1.00;;;;;;5086587;28;19968;-81
2021/10/19 01:25:50;;;;;;;;;;;13.20;1.00;;;;;;5094157;28;20388;-80
2021/10/19 01:28:16;;;;;;;;;;;13.20;1.00;;;;;;5080050;28;19908;-80
2021/10/19 01:30:42;;;;;;;;;;;13.20;1.00;;;;;;5088337;28;20307;-80
2021/10/19 01:33:08;;;;;;;;;;;13.30;1.00;;;;;;5086031;28;19920;-80
2021/10/19 01:35:37;;;;;;;;;;;13.30;1.00;;;;;;5091389;28;19919;-80
2021/10/19 01:38:04;;;;;;;;;;;13.30;1.00;;;;;;5088566;28;19930;-80
2021/10/19 01:40:30;;;;;;;;;;;13.30;1.00;;;;;;5091247;28;20380;-80
2021/10/19 01:42:56;;;;;;;;;;;13.30;1.00;;;;;;5079790;28;20012;-80
2021/10/19 01:45:21;;;;;;;;;;;13.30;1.00;;;;;;5086183;28;19951;-81
2021/10/19 01:47:46;;;;;;;;;;;13.30;1.00;;;;;;5064997;28;19913;-83
2021/10/19 01:50:13;;;;;;;;;;;13.30;1.00;;;;;;5083590;28;20008;-82
2021/10/19 01:52:39;;;;;;;;;;;13.30;1.00;;;;;;5085147;28;19913;-81
2021/10/19 01:55:05;;;;;;;;;;;13.20;1.00;;;;;;5091211;28;19919;-82
2021/10/19 01:57:31;;;;;;;;;;;13.20;1.00;;;;;;5085578;28;20383;-82
2021/10/19 01:59:56;;;;;;;;;;;13.20;1.00;;;;;;5078833;28;20287;-81
2021/10/19 02:02:22;;;;;;;;;;;13.20;1.00;;;;;;5085203;28;19913;-81
2021/10/19 02:04:47;;;;;;;;;;;13.20;3.60;;;;;;5086278;28;19912;-82
2021/10/19 02:07:13;;;;;;;;;;;13.10;7.80;;;;;;5089018;28;19958;-82
2021/10/19 02:09:38;;;;;;;;;;;13.20;10.90;;;;;;5082426;28;19920;-82
2021/10/19 02:12:04;;;;;;;;;;;13.20;13.40;;;;;;5084136;28;20003;-81
2021/10/19 02:14:29;;;;;;;;;;;13.20;15.30;;;;;;5087845;28;20007;-81
2021/10/19 02:16:55;;;;;;;;;;;13.20;17.30;;;;;;5083815;28;19955;-81
2021/10/19 02:19:25;;;;;;;;;;;13.20;18.40;;;;;;5086047;28;19908;-82
2021/10/19 02:21:50;;;;;;;;;;;13.20;19.80;;;;;;5079597;28;19939;-82
2021/10/19 02:24:16;;;;;;;;;;;13.30;21.50;;;;;;5072281;28;20375;-82
2021/10/19 02:26:41;;;;;;;;;;;13.30;23.10;;;;;;5079040;28;19960;-82
2021/10/19 02:29:07;;;;;;;;;;;13.30;24.40;;;;;;5094420;28;19988;-82
2021/10/19 02:31:33;;;;;;;;;;;13.30;25.40;;;;;;5088649;28;19912;-83
2021/10/19 02:33:58;;;;;;;;;;;13.30;27.20;;;;;;5091101;28;19923;-82
2021/10/19 02:36:23;;;;;;;;;;;13.30;28.60;;;;;;5076538;28;19917;-82
2021/10/19 02:38:49;;;;;;;;;;;13.30;30.00;;;;;;5082193;28;19922;-82
2021/10/19 02:41:14;;;;;;;;;;;13.40;31.30;;;;;;5092128;28;19912;-82
2021/10/19 02:43:40;;;;;;;;;;;13.40;32.00;;;;;;5086202;28;19917;-82
2021/10/19 02:46:05;;;;;;;;;;;13.30;32.60;;;;;;5078747;28;20378;-82
2021/10/19 02:48:31;;;;;;;;;;;13.40;33.60;;;;;;5091429;28;19912;-82
2021/10/19 02:50:56;;;;;;;;;;;13.40;34.30;;;;;;5092787;28;19919;-83
2021/10/19 02:53:21;;;;;;;;;;;13.40;35.20;;;;;;5091353;28;20426;-82
2021/10/19 02:55:47;;;;;;;;;;;13.40;36.40;;;;;;5094532;28;19916;-82
2021/10/19 02:58:12;;;;;;;;;;;13.40;37.00;;;;;;5091718;28;19912;-82
2021/10/19 03:00:38;;;;;;;;;;;13.40;37.30;;;;;;5081200;28;19912;-84
2021/10/19 03:03:03;;;;;;;;;;;13.40;37.90;;;;;;5089750;28;20399;-82
2021/10/19 03:05:29;;;;;;;;;;;13.40;38.40;;;;;;5093690;28;19916;-82
2021/10/19 03:07:54;;;;;;;;;;;13.40;38.20;;;;;;5088998;28;19975;-82
2021/10/19 03:10:20;;;;;;;;;;;13.40;38.00;;;;;;5085442;28;19973;-82
2021/10/19 03:12:45;;;;;;;;;;;13.40;37.80;;;;;;5089585;28;19920;-82
2021/10/19 03:15:11;;;;;;;;;;;13.40;37.20;;;;;;5086711;28;19912;-82
2021/10/19 03:17:37;;;;;;;;;;;13.40;36.20;;;;;;5087106;28;19912;-82
2021/10/19 03:20:02;;;;;;;;;;;13.40;36.10;;;;;;5083038;28;19912;-82
2021/10/19 03:22:28;;;;;;;;;;;13.40;35.70;;;;;;5089662;28;20434;-82
2021/10/19 03:24:53;;;;;;;;;;;13.50;34.80;;;;;;5075151;28;19916;-82
2021/10/19 03:27:19;;;;;;;;;;;13.40;34.10;;;;;;5092609;28;19916;-82
2021/10/19 03:29:44;;;;;;;;;;;13.40;30.10;;;;;;5089915;28;19928;-82
2021/10/19 03:32:10;;;;;;;;;;;13.30;24.60;;;;;;5096563;28;19912;-82
2021/10/19 03:34:36;;;;;;;;;;;13.20;17.50;;;;;;5090594;28;20002;-82
2021/10/19 03:37:01;;;;;;;;;;;13.20;13.10;;;;;;5082271;28;19919;-82
2021/10/19 03:39:27;;;;;;;;;;;13.20;13.10;;;;;;5093905;28;20380;-82
2021/10/19 03:41:52;;;;;;;;;;;13.20;14.90;;;;;;5089694;28;20033;-82
2021/10/19 03:44:17;;;;;;;;;;;13.20;13.40;;;;;;5092880;28;19916;-82
2021/10/19 03:46:43;;;;;;;;;;;13.10;13.30;;;;;;5086459;28;19912;-82
2021/10/19 03:49:08;;;;;;;;;;;13.10;13.30;;;;;;5086865;28;19912;-82
2021/10/19 03:51:34;;;;;;;;;;;13.10;13.50;;;;;;5088024;28;20383;-82
2021/10/19 03:53:59;;;;;;;;;;;13.10;13.30;;;;;;5070818;28;19919;-82
2021/10/19 03:56:25;;;;;;;;;;;13.10;13.70;;;;;;5089052;28;19956;-82
2021/10/19 03:58:50;;;;;;;;;;;13.20;16.20;;;;;;5085373;28;19912;-82
2021/10/19 04:01:16;;;;;;;;;;;13.20;18.60;;;;;;5086265;28;19943;-82
2021/10/19 04:03:42;;;;;;;;;;;13.20;21.20;;;;;;5074289;28;19916;-82
2021/10/19 04:06:08;;;;;;;;;;;13.30;23.20;;;;;;5094710;28;20007;-82
2021/10/19 04:08:34;;;;;;;;;;;13.30;24.30;;;;;;5068736;28;19995;-82
2021/10/19 04:10:59;;;;;;;;;;;13.30;23.30;;;;;;5088288;28;19955;-82
2021/10/19 04:13:25;;;;;;;;;;;13.30;22.60;;;;;;5087227;28;20541;-82
2021/10/19 04:15:50;;;;;;;;;;;13.30;22.80;;;;;;5096054;28;19971;-82
2021/10/19 04:18:16;;;;;;;;;;;13.40;23.60;;;;;;5072756;28;20295;-82
2021/10/19 04:20:41;;;;;;;;;;;13.40;23.90;;;;;;5089621;28;19912;-82
2021/10/19 04:23:07;;;;;;;;;;;13.40;24.00;;;;;;5087783;28;19952;-82
2021/10/19 04:25:32;;;;;;;;;;;13.40;22.20;;;;;;5086861;28;19918;-82
2021/10/19 04:27:58;;;;;;;;;;;13.40;20.10;;;;;;5096458;28;19912;-82
2021/10/19 04:30:23;;;;;;;;;;;13.40;20.50;;;;;;5086768;28;19923;-82
2021/10/19 04:32:49;;;;;;;;;;;13.30;20.80;;;;;;5084728;28;19916;-82
2021/10/19 04:35:14;;;;;;;;;;;13.40;20.40;;;;;;5088270;28;19919;-81
2021/10/19 04:37:40;;;;;;;;;;;13.40;21.40;;;;;;5090305;28;19959;-81
2021/10/19 04:40:05;;;;;;;;;;;13.30;22.10;;;;;;5087258;28;19916;-80
2021/10/19 04:42:33;;;;;;;;;;;13.30;23.00;;;;;;5092695;28;19912;-82
2021/10/19 04:44:59;;;;;;;;;;;13.40;25.00;;;;;;5086139;28;20331;-81
2021/10/19 04:47:27;;;;;;;;;;;13.40;26.60;;;;;;5089157;28;19947;-81
2021/10/19 04:49:53;;;;;;;;;;;13.30;27.80;;;;;;5080680;28;20261;-81
2021/10/19 04:52:18;;;;;;;;;;;13.40;28.80;;;;;;5085039;28;19924;-81
2021/10/19 04:54:44;;;;;;;;;;;13.40;29.20;;;;;;5077646;28;20311;-82
2021/10/19 04:57:09;;;;;;;;;;;13.40;29.50;;;;;;5085213;28;19915;-81
2021/10/19 04:59:35;;;;;;;;;;;13.40;28.80;;;;;;5084469;28;19920;-81
2021/10/19 05:02:00;;;;;;;;;;;13.40;28.80;;;;;;5091009;28;20338;-81
2021/10/19 05:04:26;;;;;;;;;;;13.40;29.30;;;;;;5087607;28;19913;-81
2021/10/19 05:06:51;;;;;;;;;;;13.40;29.20;;;;;;5068875;28;19912;-81
2021/10/19 05:09:17;;;;;;;;;;;13.40;29.20;;;;;;5076141;28;19916;-80
2021/10/19 05:11:42;;;;;;;;;;;13.40;29.50;;;;;;5088172;28;20000;-80
2021/10/19 05:14:08;;;;;;;;;;;13.40;29.20;;;;;;5091700;28;19916;-82
2021/10/19 05:16:33;;;;;;;;;;;13.40;29.60;;;;;;5066448;28;19908;-81
2021/10/19 05:18:59;;;;;;;;;;;13.40;30.20;;;;;;5086896;28;19935;-81
2021/10/19 05:21:24;;;;;;;;;;;13.40;31.00;;;;;;5066200;28;19951;-82
2021/10/19 05:23:50;;;;;;;;;;;13.50;31.70;;;;;;5094157;28;19984;-81
2021/10/19 05:26:15;;;;;;;;;;;13.50;32.50;;;;;;5091592;28;19912;-80
2021/10/19 05:28:41;;;;;;;;;;;13.50;32.80;;;;;;5091810;28;19912;-81
2021/10/19 05:31:06;;;;;;;;;;;13.50;32.50;;;;;;5086344;28;20296;-81
2021/10/19 05:33:32;;;;;;;;;;;13.50;32.20;;;;;;5094652;28;19912;-80
2021/10/19 05:35:57;;;;;;;;;;;13.50;32.50;;;;;;5064236;28;19912;-80
2021/10/19 05:38:23;;;;;;;;;;;13.50;32.10;;;;;;5099659;28;19912;-81
2021/10/19 05:40:48;;;;;;;;;;;13.60;33.10;;;;;;5089660;28;19948;-81
2021/10/19 05:43:14;;;;;;;;;;;13.60;34.00;;;;;;5089938;28;19912;-81
2021/10/19 05:45:39;;;;;;;;;;;13.70;36.00;;;;;;5071793;28;19913;-81
2021/10/19 05:48:05;;;;;;;;;;;13.80;38.50;;;;;;5095076;28;20509;-81
2021/10/19 05:50:33;;;;;;;;;;;13.90;42.20;;;;;;5089224;28;20368;-81
2021/10/19 05:52:58;;;;;;;;;;;14.00;43.60;;;;;;5070810;28;20335;-81
2021/10/19 05:55:24;;;;;;;;;;;14.10;44.40;;;;;;5095143;28;19912;-81
2021/10/19 05:57:49;;;;;;;;;;;14.20;44.40;;;;;;5086181;28;19912;-81
2021/10/19 06:00:15;;;;;;;;;;;14.30;43.80;;;;;;5087602;28;19912;-81
2021/10/19 06:02:40;;;;;;;;;;;14.40;42.70;;;;;;5085091;28;20378;-82
2021/10/19 06:05:06;;;;;;;;;;;14.40;41.10;;;;;;5083818;28;19974;-81
2021/10/19 06:07:31;;;;;;;;;;;14.50;39.00;;;;;;5088110;28;19909;-82
2021/10/19 06:09:57;;;;;;;;;;;14.50;37.00;;;;;;5088286;28;19913;-82
2021/10/19 06:12:22;;;;;;;;;;;14.60;35.20;;;;;;5096206;28;20334;-81
2021/10/19 06:14:47;;;;;;;;;;;14.60;33.50;;;;;;5089220;28;19908;-81
2021/10/19 06:17:13;;;;;;;;;;;14.70;31.50;;;;;;5091891;28;19912;-80
2021/10/19 06:19:39;;;;;;;;;;;14.70;29.20;;;;;;5084798;28;19918;-82
2021/10/19 06:22:04;;;;;;;;;;;14.70;27.60;;;;;;5091523;28;19947;-82
2021/10/19 06:24:30;;;;;;;;;;;14.70;26.30;;;;;;5090116;28;20369;-81
2021/10/19 06:26:55;;;;;;;;;;;14.80;25.70;;;;;;5088796;28;19912;-81
2021/10/19 06:29:21;;;;;;;;;;;14.80;24.50;;;;;;5087789;28;20011;-83
2021/10/19 06:31:46;;;;;;;;;;;14.80;23.10;;;;;;5085043;28;20403;-82
2021/10/19 06:34:12;;;;;;;;;;;14.80;21.50;;;;;;5086250;28;19912;-82
2021/10/19 06:36:38;;;;;;;;;;;14.90;20.70;;;;;;5094349;28;20410;-83
2021/10/19 06:39:03;;;;;;;;;;;14.90;19.40;;;;;;5088427;28;19951;-82
2021/10/19 06:41:30;;;;;;;;;;;15.00;19.50;;;;;;5084964;28;19917;-83
2021/10/19 06:43:56;;;;;;;;;;;15.00;18.80;;;;;;5094898;28;20027;-83
2021/10/19 06:46:21;;;;;;;;;;;15.00;17.40;;;;;;5095833;28;19908;-83
2021/10/19 06:48:46;;;;;;;;;;;15.10;15.40;;;;;;5081099;28;19913;-83
2021/10/19 06:51:12;;;;;;;;;;;15.20;12.40;;;;;;5099513;28;19955;-83
2021/10/19 06:53:37;;;;;;;;;;;15.20;11.30;;;;;;5101053;28;19919;-83
2021/10/19 06:56:03;;;;;;;;;;;15.20;10.50;;;;;;5102106;28;19912;-83
2021/10/19 06:58:28;;;;;;;;;;;15.30;8.50;;;;;;5101033;28;19916;-82
2021/10/19 07:00:54;;;;;;;;;;;15.30;8.20;;;;;;5091811;28;19912;-83
2021/10/19 07:03:20;;;;;;;;;;;15.30;7.70;;;;;;5090349;28;19912;-83
2021/10/19 07:05:46;;;;;;;;;;;15.40;7.50;;;;;;5096686;28;19995;-83
2021/10/19 07:08:11;;;;;;;;;;;15.40;5.00;;;;;;5081342;28;19912;-82
2021/10/19 07:10:37;;;;;;;;;;;15.50;2.80;;;;;;5081900;28;20411;-83
2021/10/19 07:13:03;;;;;;;;;;;15.50;1.50;;;;;;5091840;28;19934;-83
2021/10/19 07:15:34;;;;;;;;;;;15.50;2.20;;;;;;5084658;28;19912;-83
2021/10/19 07:18:00;;;;;;;;;;;15.50;1.70;;;;;;5104046;28;19912;-83
2021/10/19 07:20:25;;;;;;;;;;;15.50;1.00;;;;;;5104258;28;19948;-83
2021/10/19 07:22:51;;;;;;;;;;;15.60;1.00;;;;;;5103971;28;19916;-83
2021/10/19 07:25:16;;;;;;;;;;;15.60;1.00;;;;;;5104113;28;19951;-82
2021/10/19 07:27:44;;;;;;;;;;;15.60;1.00;;;;;;5103073;28;19912;-83
2021/10/19 07:30:09;;;;;;;;;;;15.70;1.00;;;;;;5086228;28;20333;-83
2021/10/19 07:32:35;;;;;;;;;;;15.70;1.00;;;;;;5102592;28;19958;-82
2021/10/19 07:35:00;;;;;;;;;;;15.70;1.00;;;;;;5102752;28;19912;-83
2021/10/19 07:37:26;;;;;;;;;;;15.80;1.00;;;;;;5102819;28;19908;-83
2021/10/19 07:39:51;;;;;;;;;;;15.80;1.00;;;;;;5084551;28;19950;-83
2021/10/19 07:42:17;;;;;;;;;;;15.80;1.00;;;;;;5102679;28;19935;-83
2021/10/19 07:44:43;;;;;;;;;;;15.80;1.00;;;;;;5102348;28;20402;-83
2021/10/19 07:47:08;;;;;;;;;;;15.90;1.00;;;;;;5102878;28;20326;-82
2021/10/19 07:49:34;;;;;;;;;;;15.90;1.00;;;;;;5083950;28;19909;-82
2021/10/19 07:51:59;;;;;;;;;;;15.90;1.00;;;;;;5102717;28;20439;-83
2021/10/19 07:54:25;;;;;;;;;;;16.00;1.00;;;;;;5102573;28;19904;-83
2021/10/19 07:56:50;;;;;;;;;;;16.00;1.00;;;;;;5084421;28;19943;-83
2021/10/19 07:59:16;;;;;;;;;;;16.00;1.00;;;;;;5084479;28;19969;-83
2021/10/19 08:01:42;;;;;;;;;;;16.20;1.00;;;;;;5102150;28;19957;-83
2021/10/19 08:04:07;;;;;;;;;;;16.20;1.00;;;;;;5101751;28;19958;-82
2021/10/19 08:06:33;;;;;;;;;;;16.20;1.00;;;;;;5102331;28;19920;-83
2021/10/19 08:09:00;;;;;;;;;;;16.20;1.00;;;;;;5100246;28;19912;-82
2021/10/19 08:11:25;;;;;;;;;;;16.20;1.00;;;;;;5101053;28;20345;-82
2021/10/19 08:13:54;;;;;;;;;;;16.30;1.00;;;;;;5101943;28;19999;-83
2021/10/19 08:16:19;;;;;;;;;;;16.30;1.00;;;;;;5101188;28;19908;-83
2021/10/19 08:18:45;;;;;;;;;;;16.30;1.00;;;;;;5100600;28;20264;-83
2021/10/19 08:21:10;;;;;;;;;;;16.40;1.00;;;;;;5098048;28;19951;-83
2021/10/19 08:23:36;;;;;;;;;;;16.50;1.00;;;;;;5096756;28;19919;-83
2021/10/19 08:26:01;;;;;;;;;;;16.50;1.00;;;;;;5077585;28;20433;-82
2021/10/19 08:28:31;;;;;;;;;;;16.60;1.00;;;;;;5082144;28;20306;-83
2021/10/19 08:30:56;;;;;;;;;;;16.60;1.00;;;;;;5084940;28;20010;-84
2021/10/19 08:33:22;;;;;;;;;;;16.60;1.00;;;;;;5077840;28;20756;-84
2021/10/19 08:35:48;;;;;;;;;;;16.70;1.00;;;;;;5087551;28;19916;-84
2021/10/19 08:38:13;;;;;;;;;;;16.70;1.00;;;;;;5092117;28;19958;-83
2021/10/19 08:40:40;;;;;;;;;;;16.70;1.00;;;;;;5076805;28;19916;-84
2021/10/19 08:43:05;;;;;;;;;;;16.80;1.00;;;;;;5064714;28;20012;-84
2021/10/19 08:45:31;;;;;;;;;;;16.80;1.00;;;;;;5091589;28;19943;-84
2021/10/19 08:47:56;;;;;;;;;;;16.80;1.00;;;;;;5091709;28;19908;-84
2021/10/19 08:50:23;;;;;;;;;;;16.90;1.00;;;;;;5094240;28;19916;-83
2021/10/19 08:52:50;;;;;;;;;;;16.90;1.00;;;;;;5094576;28;19912;-84
2021/10/19 08:55:16;;;;;;;;;;;16.90;1.00;;;;;;5095364;28;19908;-84
2021/10/19 08:57:41;;;;;;;;;;;16.90;1.00;;;;;;5094393;28;19912;-84
2021/10/19 09:00:09;;;;;;;;;;;17.00;1.00;;;;;;5076237;28;20284;-83
2021/10/19 09:02:36;;;;;;;;;;;16.90;1.00;;;;;;5069872;28;19999;-83
2021/10/19 09:05:15;;;;;;;;;;;17.00;1.00;;;;;;5094742;28;20333;-83
2021/10/19 09:07:51;;;;;;;;;;;17.00;1.00;;;;;;5094039;28;19912;-83
2021/10/19 09:10:17;;;;;;;;;;;17.00;1.00;;;;;;5093797;28;19919;-83
2021/10/19 09:12:56;;;;;;;;;;;17.00;1.00;;;;;;5093378;28;19990;-83
2021/10/19 09:15:23;;;;;;;;;;;17.00;1.00;;;;;;5083329;28;19965;-83
2021/10/19 09:17:49;;;;;;;;;;;16.90;1.00;;;;;;5091722;28;19919;-84
2021/10/19 09:20:15;;;;;;;;;;;17.00;1.00;;;;;;5082976;28;20636;-83
2021/10/19 09:22:51;;;;;;;;;;;17.10;1.00;;;;;;5092740;28;19920;-84
2021/10/19 09:25:23;;;;;;;;;;;17.10;1.00;;;;;;5082239;28;19923;-83
2021/10/19 09:27:48;;;;;;;;;;;17.20;1.00;;;;;;5086231;28;19962;-84
2021/10/19 09:30:14;;;;;;;;;;;17.20;1.00;;;;;;5085705;28;19959;-84
2021/10/19 09:32:49;;;;;;;;;;;17.20;1.00;;;;;;5074921;28;19953;-84
2021/10/19 09:35:21;;;;;;;;;;;17.20;1.00;;;;;;5091050;28;19912;-83
2021/10/19 09:37:57;;;;;;;;;;;17.20;1.00;;;;;;5095140;28;20261;-83
2021/10/19 09:40:32;;;;;;;;;;;17.20;1.00;;;;;;5077396;28;19912;-84
2021/10/19 09:43:02;;;;;;;;;;;17.20;1.00;;;;;;5084487;28;19958;-85
2021/10/19 09:45:28;;;;;;;;;;;17.10;1.00;;;;;;5084493;28;19974;-84
2021/10/19 09:47:55;;;;;;;;;;;17.10;1.00;;;;;;5084465;28;19908;-84
2021/10/19 09:50:20;;;;;;;;;;;17.20;1.00;;;;;;5086907;28;19930;-85
2021/10/19 09:52:46;;;;;;;;;;;17.10;1.00;;;;;;5083481;28;20002;-84
2021/10/19 09:55:12;;;;;;;;;;;17.20;1.00;;;;;;5087829;28;19909;-84
2021/10/19 09:57:42;;;;;;;;;;;17.20;1.00;;;;;;5086496;28;20197;-84
2021/10/19 10:00:08;;;;;;;;;;;17.20;1.00;;;;;;5087465;28;19908;-84
2021/10/19 10:02:34;;;;;;;;;;;17.30;1.00;;;;;;5078746;28;19908;-84
2021/10/19 10:05:01;;;;;;;;;;;17.40;1.00;;;;;;5088309;28;20364;-84
2021/10/19 10:07:30;;;;;;;;;;;17.40;1.00;;;;;;5092109;28;20015;-84
2021/10/19 10:09:56;;;;;;;;;;;17.50;1.00;;;;;;5090980;28;19969;-84
2021/10/19 10:12:31;;;;;;;;;;;17.50;1.00;;;;;;5075217;28;19911;-86
2021/10/19 10:14:57;;;;;;;;;;;17.50;1.00;;;;;;5089270;28;19908;-84
2021/10/19 10:17:22;;;;;;;;;;;17.60;1.00;;;;;;5085880;28;20268;-84
2021/10/19 10:19:48;;;;;;;;;;;17.60;1.00;;;;;;5088622;28;19912;-84
2021/10/19 10:22:39;;;;;;;;;;;17.70;1.00;;;;;;5086411;28;19912;-84
2021/10/19 10:25:07;;;;;;;;;;;17.70;1.00;;;;;;5085964;28;19916;-84
2021/10/19 10:27:32;;;;;;;;;;;17.70;1.00;;;;;;5080922;28;19917;-85
2021/10/19 10:29:58;;;;;;;;;;;17.70;1.00;;;;;;5084229;28;20395;-84
2021/10/19 10:32:23;;;;;;;;;;;17.80;1.00;;;;;;5089324;28;19916;-84
2021/10/19 10:34:58;;;;;;;;;;;17.90;1.00;;;;;;5071199;28;20010;-84
2021/10/19 10:37:36;;;;;;;;;;;18.00;1.00;;;;;;5072548;28;19919;-84
2021/10/19 10:40:02;;;;;;;;;;;18.00;1.00;;;;;;5083145;28;20287;-84
2021/10/19 10:42:37;;;;;;;;;;;18.10;1.00;;;;;;5083460;28;19909;-84
2021/10/19 10:45:05;;;;;;;;;;;18.20;1.00;;;;;;5092422;28;19983;-84
2021/10/19 10:47:30;;;;;;;;;;;18.30;1.00;;;;;;5089687;28;19908;-84
2021/10/19 10:49:57;;;;;;;;;;;18.40;1.00;;;;;;5078848;28;20063;-84
2021/10/19 10:52:23;;;;;;;;;;;18.60;1.00;;;;;;5073005;28;19912;-83
2021/10/19 10:54:55;;;;;;;;;;;18.80;1.00;;;;;;5088940;28;19923;-84
2021/10/19 10:57:21;;;;;;;;;;;19.00;1.00;;;;;;5086168;28;19982;-84
2021/10/19 10:59:53;;;;;;;;;;;19.30;1.00;;;;;;5086968;28;19912;-83
2021/10/19 11:02:19;;;;;;;;;;;19.60;99.90;;;;;;5089574;28;19919;-84
2021/10/19 11:04:48;;;;;;;;;;;19.70;99.90;;;;;;5084352;28;19912;-85
2021/10/19 11:07:23;;;;;;;;;;;19.90;99.90;;;;;;5092547;28;19916;-84
2021/10/19 11:09:48;;;;;;;;;;;20.00;99.90;;;;;;5083715;28;19936;-84
2021/10/19 11:12:17;;;;;;;;;;;20.00;99.90;;;;;;5094751;28;20383;-84
2021/10/19 11:14:43;;;;;;;;;;;20.10;7.20;;;;;;5085994;28;20411;-84
2021/10/19 11:17:09;;;;;;;;;;;20.10;82.10;;;;;;5070811;28;19912;-84
2021/10/19 11:19:35;;;;;;;;;;;20.00;59.70;;;;;;5091714;28;19908;-83
2021/10/19 11:22:03;;;;;;;;;;;20.00;91.40;;;;;;5085146;28;19912;-84
2021/10/19 11:24:29;;;;;;;;;;;20.00;99.90;;;;;;5061634;28;19917;-83
2021/10/19 11:26:56;;;;;;;;;;;20.00;99.90;;;;;;5097857;28;20006;-83
2021/10/19 11:29:22;;;;;;;;;;;19.90;99.90;;;;;;5079352;28;19916;-83
2021/10/19 11:31:48;;;;;;;;;;;19.90;99.90;;;;;;5096902;28;20053;-83
2021/10/19 11:34:14;;;;;;;;;;;19.90;99.90;;;;;;5094910;28;19977;-84
2021/10/19 11:36:39;;;;;;;;;;;20.10;99.90;;;;;;5086969;28;20346;-85
2021/10/19 11:39:11;;;;;;;;;;;20.70;92.60;;;;;;5094208;28;20583;-84
2021/10/19 11:41:37;;;;;;;;;;;21.30;1.00;;;;;;5095022;28;19912;-84
2021/10/19 11:44:04;;;;;;;;;;;21.60;1.00;;;;;;5095315;28;19912;-84
2021/10/19 11:46:30;;;;;;;;;;;21.70;94.90;;;;;;5093597;28;19920;-84
2021/10/19 11:48:57;;;;;;;;;;;21.90;1.00;;;;;;5095296;28;19908;-84
2021/10/19 11:51:23;;;;;;;;;;;21.80;37.00;;;;;;5095411;28;19908;-84
2021/10/19 11:53:50;;;;;;;;;;;21.60;99.90;;;;;;5098210;28;19912;-84
2021/10/19 11:56:16;;;;;;;;;;;21.30;99.90;;;;;;5095681;28;19908;-84
2021/10/19 11:58:52;;;;;;;;;;;21.00;1.00;;;;;;5076549;28;19948;-84
2021/10/19 12:01:19;;;;;;;;;;;20.90;99.90;;;;;;5095819;28;20557;-84
2021/10/19 12:03:53;;;;;;;;;;;20.60;99.90;;;;;;5094764;28;19963;-84
2021/10/19 12:06:22;;;;;;;;;;;20.50;1.00;;;;;;5095221;28;19919;-84
2021/10/19 12:08:47;;;;;;;;;;;20.40;99.90;;;;;;5095368;28;19916;-85
2021/10/19 12:11:13;;;;;;;;;;;20.30;99.90;;;;;;5094993;28;19920;-85
2021/10/19 12:13:38;;;;;;;;;;;20.20;99.90;;;;;;5086620;28;19912;-85
2021/10/19 12:16:05;;;;;;;;;;;20.20;1.00;;;;;;5077335;28;19944;-84
2021/10/19 12:18:44;;;;;;;;;;;20.30;99.90;;;;;;5095786;28;19916;-83
2021/10/19 12:21:10;;;;;;;;;;;20.50;99.90;;;;;;5077506;28;20397;-84
2021/10/19 12:23:36;;;;;;;;;;;20.50;78.40;;;;;;5100558;28;19916;-84
2021/10/19 12:26:03;;;;;;;;;;;20.40;99.90;;;;;;5104858;28;20322;-84
2021/10/19 12:28:29;;;;;;;;;;;20.40;99.90;;;;;;5103909;28;20295;-84
2021/10/19 12:30:59;;;;;;;;;;;20.50;99.90;;;;;;5103378;28;19909;-84
2021/10/19 12:33:25;;;;;;;;;;;20.50;99.90;;;;;;5085437;28;19908;-84
2021/10/19 12:35:55;;;;;;;;;;;20.70;80.40;;;;;;5102591;28;19931;-84
2021/10/19 12:38:28;;;;;;;;;;;20.90;1.00;;;;;;5102725;28;19922;-85
2021/10/19 12:41:03;;;;;;;;;;;21.30;1.00;;;;;;5078890;28;19916;-85
2021/10/19 12:43:29;;;;;;;;;;;21.40;99.90;;;;;;5098944;28;19920;-84
2021/10/19 12:45:54;;;;;;;;;;;21.40;99.90;;;;;;5098867;28;19937;-84
2021/10/19 12:48:20;;;;;;;;;;;21.40;1.00;;;;;;5097250;28;19908;-83
2021/10/19 12:50:45;;;;;;;;;;;21.40;1.00;;;;;;5096675;28;19912;-84
2021/10/19 12:53:11;;;;;;;;;;;21.30;1.00;;;;;;5096799;28;19915;-83
2021/10/19 12:55:36;;;;;;;;;;;21.10;99.90;;;;;;5096811;28;19908;-83
2021/10/19 12:58:02;;;;;;;;;;;20.90;1.00;;;;;;5097962;28;19955;-84
2021/10/19 13:00:27;;;;;;;;;;;20.90;99.90;;;;;;5079149;28;19912;-84
2021/10/19 13:02:52;;;;;;;;;;;20.80;99.90;;;;;;5098243;28;19916;-84
2021/10/19 13:05:19;;;;;;;;;;;20.70;1.00;;;;;;5079543;28;20288;-84
2021/10/19 13:07:45;;;;;;;;;;;20.60;1.00;;;;;;5097664;28;19969;-83
2021/10/19 13:10:11;;;;;;;;;;;20.50;14.80;;;;;;5103065;28;20356;-84
2021/10/19 13:12:36;;;;;;;;;;;20.50;99.90;;;;;;5097480;28;19912;-84
2021/10/19 13:15:02;;;;;;;;;;;20.50;99.90;;;;;;5102040;28;19912;-84
2021/10/19 13:17:27;;;;;;;;;;;20.40;99.90;;;;;;5104877;28;19948;-84
2021/10/19 13:19:53;;;;;;;;;;;20.30;99.90;;;;;;5103524;28;19909;-83
2021/10/19 13:22:18;;;;;;;;;;;20.30;99.90;;;;;;5103920;28;19937;-84
2021/10/19 13:24:44;;;;;;;;;;;20.20;99.90;;;;;;5098431;28;19916;-83
2021/10/19 13:27:09;;;;;;;;;;;20.40;99.90;;;;;;5101402;28;19927;-84
2021/10/19 13:29:37;;;;;;;;;;;20.50;99.90;;;;;;5104125;28;19919;-84
2021/10/19 13:32:03;;;;;;;;;;;20.50;58.00;;;;;;5105089;28;19908;-84
2021/10/19 13:34:29;;;;;;;;;;;20.50;72.70;;;;;;5103948;28;19912;-84
2021/10/19 13:36:54;;;;;;;;;;;20.70;1.00;;;;;;5104797;28;19916;-84
2021/10/19 13:39:20;;;;;;;;;;;21.00;99.90;;;;;;5103575;28;19927;-84
2021/10/19 13:41:48;;;;;;;;;;;21.00;1.00;;;;;;5104269;28;19909;-84
2021/10/19 13:44:16;;;;;;;;;;;21.00;99.90;;;;;;5104074;28;19922;-84
2021/10/19 13:46:42;;;;;;;;;;;20.90;1.00;;;;;;5103236;28;19923;-84
2021/10/19 13:49:07;;;;;;;;;;;20.90;1.00;;;;;;5103126;28;19916;-84
2021/10/19 13:51:33;;;;;;;;;;;20.90;1.00;;;;;;5103661;28;19916;-84
2021/10/19 13:53:58;;;;;;;;;;;21.00;1.00;;;;;;5083708;28;19968;-84
2021/10/19 13:56:24;;;;;;;;;;;21.00;99.90;;;;;;5101963;28;19912;-84
2021/10/19 13:58:49;;;;;;;;;;;21.00;99.90;;;;;;5084515;28;19973;-84
2021/10/19 14:01:15;;;;;;;;;;;20.90;63.50;;;;;;5101087;28;19912;-83
2021/10/19 14:03:41;;;;;;;;;;;20.70;99.90;;;;;;5101280;28;19919;-84
2021/10/19 14:06:09;;;;;;;;;;;20.60;1.00;;;;;;5101183;28;19912;-84
2021/10/19 14:08:35;;;;;;;;;;;20.60;1.00;;;;;;5101981;28;20395;-83
2021/10/19 14:11:02;;;;;;;;;;;20.60;1.00;;;;;;5100087;28;19915;-84
2021/10/19 14:13:28;;;;;;;;;;;20.50;52.90;;;;;;5091347;28;19915;-83
2021/10/19 14:15:53;;;;;;;;;;;20.50;99.90;;;;;;5077747;28;19919;-84
2021/10/19 14:18:19;;;;;;;;;;;20.50;99.90;;;;;;5077131;28;19920;-85